Time;durP1;ratioP1;P1;durP2;ratioP2;P2;SDS_P1;SDS_P2;PMS_P1;PMS_P2;Temp;Humidity;BMP_temperature;BMP_pressure;BME280_temperature;BME280_humidity;BME280_pressure;Samples;Min_cycle;Max_cycle;Signal;HPM_P1;HPM_P2
2021/11/23 00:01:01;;;;;;;0.40;0.30;;;;;;;2.14;98.87;102097.78;5054052;28;20512;-73
2021/11/23 00:03:28;;;;;;;2.73;2.63;;;;;;;2.16;99.01;102088.53;5054104;28;20560;-73
2021/11/23 00:05:55;;;;;;;0.40;0.30;;;;;;;2.22;98.53;102085.03;5054056;28;20496;-72
2021/11/23 00:08:21;;;;;;;0.40;0.30;;;;;;;2.22;98.87;102092.25;5053998;28;20488;-72
2021/11/23 00:10:49;;;;;;;0.40;0.30;;;;;;;2.15;98.99;102097.56;5053869;28;20540;-72
2021/11/23 00:13:18;;;;;;;0.40;0.30;;;;;;;2.12;99.13;102097.97;5054277;28;20492;-72
2021/11/23 00:15:45;;;;;;;0.40;0.30;;;;;;;2.18;99.11;102091.81;5053873;28;20439;-72
2021/11/23 00:18:14;;;;;;;0.40;0.30;;;;;;;2.14;97.67;102089.78;5053817;28;20632;-71
2021/11/23 00:20:42;;;;;;;0.40;0.30;;;;;;;2.17;98.31;102090.19;5053373;28;20470;-71
2021/11/23 00:23:09;;;;;;;0.40;0.30;;;;;;;2.17;98.07;102089.34;5053790;28;20442;-71
2021/11/23 00:25:36;;;;;;;0.40;0.30;;;;;;;2.18;98.65;102088.34;5053462;28;20451;-71
2021/11/23 00:28:03;;;;;;;0.40;0.30;;;;;;;2.15;98.56;102086.88;5053659;28;20442;-72
2021/11/23 00:30:32;;;;;;;0.40;0.30;;;;;;;2.16;98.86;102088.53;5053292;28;20516;-71
2021/11/23 00:32:59;;;;;;;0.40;0.30;;;;;;;2.18;99.34;102091.81;5052321;28;20446;-71
2021/11/23 00:35:26;;;;;;;0.40;0.30;;;;;;;2.23;99.20;102083.19;5053285;28;20508;-72
2021/11/23 00:37:53;;;;;;;0.40;0.30;;;;;;;2.20;99.04;102076.38;5053421;28;20496;-72
2021/11/23 00:40:21;;;;;;;0.40;0.30;;;;;;;2.20;99.86;102063.03;5053156;28;20470;-72
2021/11/23 00:42:48;;;;;;;0.87;0.87;;;;;;;2.19;99.67;102077.44;5053181;28;20496;-72
2021/11/23 00:45:16;;;;;;;0.40;0.30;;;;;;;2.15;99.88;102070.03;5053436;28;20449;-72
2021/11/23 00:47:44;;;;;;;0.40;0.30;;;;;;;2.13;99.78;102067.56;5053365;28;20504;-72
2021/11/23 00:50:13;;;;;;;0.40;0.30;;;;;;;2.14;100.00;102063.88;5052916;28;20984;-71
2021/11/23 00:52:40;;;;;;;0.40;0.30;;;;;;;2.16;99.85;102072.50;5053358;28;20450;-69
2021/11/23 00:55:08;;;;;;;1.50;1.40;;;;;;;2.19;99.97;102069.41;5014753;28;1102437;-70
2021/11/23 00:57:35;;;;;;;0.40;0.30;;;;;;;2.22;99.55;102058.31;5054151;28;20442;-72
2021/11/23 01:00:03;;;;;;;0.40;0.30;;;;;;;2.21;99.72;102045.13;5053972;28;20540;-70
2021/11/23 01:02:29;;;;;;;0.40;0.30;;;;;;;2.18;99.20;102046.38;5054001;28;20524;-71
2021/11/23 01:04:58;;;;;;;0.40;0.30;;;;;;;2.13;99.11;102045.38;5053950;28;20484;-71
2021/11/23 01:07:24;;;;;;;0.40;0.30;;;;;;;2.08;100.00;102046.00;5053942;28;20500;-72
2021/11/23 01:09:51;;;;;;;0.40;0.30;;;;;;;2.10;100.00;102046.59;5053859;28;20884;-72
2021/11/23 01:12:18;;;;;;;0.40;0.30;;;;;;;2.14;100.00;102049.69;5053793;28;20446;-72
2021/11/23 01:14:45;;;;;;;0.40;0.30;;;;;;;2.18;100.00;102058.94;5053523;28;20442;-72
2021/11/23 01:17:11;;;;;;;0.40;0.30;;;;;;;2.21;100.00;102040.63;5053491;28;21024;-71
2021/11/23 01:19:38;;;;;;;0.40;0.30;;;;;;;2.27;100.00;102039.78;5053531;28;20532;-71
2021/11/23 01:22:06;;;;;;;0.40;0.20;;;;;;;2.31;100.00;102042.06;5053680;28;20852;-71
2021/11/23 01:24:33;;;;;;;0.40;0.30;;;;;;;2.32;100.00;102022.28;5053305;28;20856;-72
2021/11/23 01:27:00;;;;;;;0.40;0.30;;;;;;;2.35;100.00;102032.56;5053537;28;20449;-71
2021/11/23 01:29:27;;;;;;;0.40;0.30;;;;;;;2.33;100.00;102030.09;5053161;28;20462;-72
2021/11/23 01:31:53;;;;;;;0.40;0.30;;;;;;;2.38;100.00;102034.81;5053168;28;20496;-71
2021/11/23 01:34:20;;;;;;;0.40;0.30;;;;;;;2.35;100.00;102032.56;5053494;28;20499;-71
2021/11/23 01:36:48;;;;;;;0.50;0.40;;;;;;;2.36;100.00;102024.34;5053371;28;20902;-71
2021/11/23 01:39:16;;;;;;;0.80;0.77;;;;;;;2.37;100.00;102019.81;5052485;28;20490;-71
2021/11/23 01:41:43;;;;;;;0.53;0.53;;;;;;;2.38;100.00;102019.59;5013707;28;20515;-70
2021/11/23 01:44:10;;;;;;;0.40;0.20;;;;;;;2.39;100.00;102007.03;5013503;28;20444;-71
2021/11/23 01:46:37;;;;;;;0.40;0.30;;;;;;;2.38;100.00;102008.88;5013702;28;20480;-70
2021/11/23 01:49:04;;;;;;;0.40;0.30;;;;;;;2.34;100.00;102010.34;5013543;28;20506;-70
2021/11/23 01:51:31;;;;;;;0.40;0.30;;;;;;;2.36;100.00;102021.66;5013603;28;20447;-70
2021/11/23 01:53:58;;;;;;;0.40;0.30;;;;;;;2.39;100.00;102023.06;5013192;28;21005;-70
2021/11/23 01:56:26;;;;;;;0.40;0.30;;;;;;;2.41;100.00;102021.03;5013381;28;20459;-70
2021/11/23 01:58:53;;;;;;;0.40;0.30;;;;;;;2.38;100.00;102027.59;5013318;28;20824;-70
2021/11/23 02:01:20;;;;;;;0.40;0.30;;;;;;;2.40;100.00;102024.75;5013482;28;20441;-71
2021/11/23 02:03:47;;;;;;;0.40;0.30;;;;;;;2.45;100.00;102031.09;5013425;28;20503;-71
2021/11/23 02:06:14;;;;;;;0.40;0.30;;;;;;;2.51;100.00;102027.56;5013414;28;20495;-70
2021/11/23 02:08:41;;;;;;;0.40;0.30;;;;;;;2.51;99.61;102029.41;5013400;28;20448;-71
2021/11/23 02:11:08;;;;;;;0.40;0.30;;;;;;;2.54;100.00;102031.69;5013299;28;20452;-71
2021/11/23 02:13:36;;;;;;;0.40;0.30;;;;;;;2.62;100.00;102031.44;5013290;28;20444;-70
2021/11/23 02:16:03;;;;;;;0.40;0.30;;;;;;;2.73;100.00;102030.75;5013247;28;20855;-71
2021/11/23 02:18:30;;;;;;;0.40;0.30;;;;;;;2.76;99.81;102021.50;5013199;28;20452;-70
2021/11/23 02:20:58;;;;;;;0.40;0.30;;;;;;;2.75;99.78;102009.97;5013125;28;20472;-70
2021/11/23 02:23:25;;;;;;;0.40;0.30;;;;;;;2.72;100.00;102007.72;5013246;28;20447;-70
2021/11/23 02:25:52;;;;;;;0.40;0.20;;;;;;;2.68;99.88;102003.84;5013175;28;20454;-70
2021/11/23 02:28:19;;;;;;;10.63;10.03;;;;;;;2.65;100.00;102006.09;5013161;28;20467;-71
2021/11/23 02:30:49;;;;;;;0.40;0.30;;;;;;;2.61;100.00;102005.75;5013214;28;20518;-70
2021/11/23 02:33:17;;;;;;;0.40;0.30;;;;;;;2.61;100.00;102013.75;5013111;28;20440;-71
2021/11/23 02:35:44;;;;;;;0.40;0.30;;;;;;;2.63;100.00;102000.16;5012786;28;20942;-70
2021/11/23 02:38:13;;;;;;;0.40;0.30;;;;;;;2.64;100.00;102010.63;5012868;28;20448;-70
2021/11/23 02:40:40;;;;;;;0.40;0.30;;;;;;;2.69;100.00;101996.63;5012694;28;21064;-71
2021/11/23 02:43:07;;;;;;;0.50;0.50;;;;;;;2.72;100.00;101994.34;5013046;28;20452;-71
2021/11/23 02:45:33;;;;;;;0.40;0.30;;;;;;;2.72;100.00;101994.34;5012715;28;20510;-71
2021/11/23 02:48:01;;;;;;;0.40;0.30;;;;;;;2.73;100.00;101981.78;5013002;28;20816;-71
2021/11/23 02:50:28;;;;;;;0.40;0.30;;;;;;;2.75;100.00;101985.09;5012915;28;20580;-71
2021/11/23 02:52:56;;;;;;;0.40;0.20;;;;;;;2.80;100.00;101982.59;5064618;23;20496;-79
2021/11/23 02:55:29;;;;;;;0.40;0.30;;;;;;;2.85;100.00;101987.28;5077046;28;20472;-80
2021/11/23 02:57:56;;;;;;;0.40;0.30;;;;;;;2.87;100.00;101982.53;5078884;28;20436;-80
2021/11/23 03:00:26;;;;;;;0.40;0.20;;;;;;;2.91;100.00;101981.06;5079401;28;20491;-80
2021/11/23 03:02:54;;;;;;;0.67;0.67;;;;;;;2.90;100.00;101979.44;5079249;28;21000;-80
2021/11/23 03:05:22;;;;;;;0.40;0.30;;;;;;;2.94;100.00;101967.28;5080574;28;20518;-80
2021/11/23 03:07:51;;;;;;;0.40;0.30;;;;;;;2.95;100.00;101987.63;5081187;28;20950;-80
2021/11/23 03:10:19;;;;;;;0.40;0.20;;;;;;;2.99;100.00;101978.97;5081799;28;20449;-79
2021/11/23 03:12:50;;;;;;;0.40;0.30;;;;;;;3.06;100.00;101978.94;5081583;28;20918;-79
2021/11/23 03:15:18;;;;;;;0.40;0.23;;;;;;;3.15;100.00;101971.47;5081111;28;20461;-80
2021/11/23 03:17:45;;;;;;;0.40;0.30;;;;;;;3.18;100.00;101974.50;5081744;28;20468;-80
2021/11/23 03:20:14;;;;;;;0.40;0.30;;;;;;;3.22;100.00;101980.25;5081049;28;20993;-80
2021/11/23 03:22:41;;;;;;;0.40;0.30;;;;;;;3.29;100.00;101986.38;5081701;28;20449;-79
2021/11/23 03:25:09;;;;;;;0.40;0.27;;;;;;;3.34;100.00;101991.06;5082176;28;20480;-80
2021/11/23 03:27:37;;;;;;;0.40;0.30;;;;;;;3.37;100.00;101978.09;5101332;28;20455;-80
2021/11/23 03:30:09;;;;;;;0.40;0.30;;;;;;;3.40;100.00;101979.47;5102086;28;20460;-80
2021/11/23 03:32:36;;;;;;;0.40;0.20;;;;;;;3.43;100.00;101987.09;5102255;28;20490;-80
2021/11/23 03:35:04;;;;;;;0.40;0.20;;;;;;;3.46;100.00;101986.66;5101796;28;20453;-80
2021/11/23 03:37:31;;;;;;;0.40;0.30;;;;;;;3.50;100.00;101974.47;5100533;28;20441;-79
2021/11/23 03:39:58;;;;;;;12.60;11.80;;;;;;;3.53;100.00;101987.41;5104284;28;20480;-81
2021/11/23 03:42:26;;;;;;;0.40;0.30;;;;;;;3.55;100.00;101980.00;5105201;28;20440;-81
2021/11/23 03:44:57;;;;;;;0.40;0.30;;;;;;;3.58;100.00;101986.75;5101763;28;20870;-79
2021/11/23 03:47:27;;;;;;;0.40;0.20;;;;;;;3.59;100.00;101980.38;5103492;28;20428;-81
2021/11/23 03:49:54;;;;;;;0.40;0.30;;;;;;;3.60;100.00;101977.47;5103918;28;20440;-81
2021/11/23 03:52:22;;;;;;;0.40;0.20;;;;;;;3.63;100.00;101971.69;5104551;28;20448;-81
2021/11/23 03:54:48;;;;;;;0.40;0.30;;;;;;;3.62;100.00;101975.38;5090233;28;20511;-80
2021/11/23 03:57:15;;;;;;;0.40;0.20;;;;;;;3.62;100.00;101975.38;5081840;28;20449;-80
2021/11/23 03:59:46;;;;;;;0.40;0.20;;;;;;;3.62;100.00;101967.34;5082216;28;20477;-80
2021/11/23 04:02:14;;;;;;;0.40;0.20;;;;;;;3.62;100.00;101974.56;5083693;28;20433;-80
2021/11/23 04:04:42;;;;;;;0.40;0.30;;;;;;;3.59;100.00;101962.44;5082882;28;20452;-80
2021/11/23 04:07:09;;;;;;;0.40;0.23;;;;;;;3.56;100.00;101954.84;5082445;28;20430;-80
2021/11/23 04:09:36;;;;;;;0.40;0.30;;;;;;;3.57;100.00;101955.66;5082227;28;20452;-80
2021/11/23 04:12:04;;;;;;;0.40;0.30;;;;;;;3.57;100.00;101955.66;5082826;28;20437;-80
2021/11/23 04:14:31;;;;;;;0.40;0.30;;;;;;;3.55;100.00;101950.53;5080619;28;20523;-80
2021/11/23 04:16:58;;;;;;;0.40;0.30;;;;;;;3.54;100.00;101941.66;5078977;28;20523;-80
2021/11/23 04:19:25;;;;;;;0.40;0.20;;;;;;;3.55;100.00;101947.84;5081003;28;20488;-79
2021/11/23 04:21:53;;;;;;;0.40;0.30;;;;;;;3.53;100.00;101955.25;5080610;28;20442;-80
2021/11/23 04:24:20;;;;;;;0.40;0.30;;;;;;;3.54;100.00;101946.19;5079623;28;20453;-80
2021/11/23 04:26:47;;;;;;;0.40;0.30;;;;;;;3.55;100.00;101953.19;5081618;28;21017;-80
2021/11/23 04:29:14;;;;;;;0.40;0.30;;;;;;;3.54;100.00;101951.53;5081933;28;20547;-80
2021/11/23 04:31:40;;;;;;;0.40;0.30;;;;;;;3.57;100.00;101948.44;5081445;28;20445;-79
2021/11/23 04:34:07;;;;;;;0.40;0.30;;;;;;;3.58;100.00;101942.03;5079880;28;20442;-79
2021/11/23 04:36:34;;;;;;;0.40;0.30;;;;;;;3.60;100.00;101947.19;5079212;28;20465;-80
2021/11/23 04:39:03;;;;;;;0.40;0.20;;;;;;;3.62;100.00;101940.53;5078868;28;20438;-79
2021/11/23 04:41:30;;;;;;;0.40;0.20;;;;;;;3.64;100.00;101935.00;5079323;28;20880;-80
2021/11/23 04:43:57;;;;;;;0.40;0.30;;;;;;;3.68;100.00;101930.81;5078714;28;20437;-79
2021/11/23 04:46:24;;;;;;;0.40;0.27;;;;;;;3.72;100.00;101932.84;5078968;28;20499;-80
2021/11/23 04:48:51;;;;;;;0.40;0.30;;;;;;;3.73;100.00;101929.13;5077741;28;20449;-80
2021/11/23 04:51:17;;;;;;;0.40;0.30;;;;;;;3.74;100.00;101925.38;5078919;28;20495;-80
2021/11/23 04:53:44;;;;;;;0.40;0.20;;;;;;;3.80;100.00;101935.19;5079308;28;20458;-81
2021/11/23 04:56:12;;;;;;;0.40;0.30;;;;;;;3.79;100.00;101927.41;5078995;28;20453;-81
2021/11/23 04:58:39;;;;;;;0.40;0.30;;;;;;;3.84;100.00;101919.50;5078282;28;20995;-81
2021/11/23 05:01:06;;;;;;;0.40;0.23;;;;;;;3.90;100.00;101920.50;5079659;28;20485;-81
2021/11/23 05:03:33;;;;;;;0.40;0.30;;;;;;;3.93;100.00;101917.34;5078508;28;20445;-81
2021/11/23 05:06:00;;;;;;;0.40;0.30;;;;;;;3.96;100.00;101923.09;5078100;28;20453;-81
2021/11/23 05:08:27;;;;;;;0.40;0.30;;;;;;;3.99;100.00;101927.19;5078613;28;20445;-81
2021/11/23 05:10:54;;;;;;;0.40;0.30;;;;;;;4.03;100.00;101934.56;5077600;28;20454;-81
2021/11/23 05:13:22;;;;;;;0.40;0.30;;;;;;;4.08;100.00;101925.84;5078003;28;20438;-81
2021/11/23 05:15:49;;;;;;;0.40;0.30;;;;;;;4.12;100.00;101927.03;5079548;28;20887;-80
2021/11/23 05:18:16;;;;;;;0.40;0.30;;;;;;;4.21;100.00;101924.88;5077979;28;20430;-80
2021/11/23 05:20:43;;;;;;;0.40;0.30;;;;;;;4.26;100.00;101928.50;5077785;28;20481;-80
2021/11/23 05:23:09;;;;;;;0.87;0.87;;;;;;;4.26;100.00;101925.81;5076666;28;20491;-81
2021/11/23 05:25:36;;;;;;;0.40;0.23;;;;;;;4.32;100.00;101921.41;5079174;28;20470;-80
2021/11/23 05:28:03;;;;;;;0.47;0.30;;;;;;;4.39;100.00;101929.38;5079424;28;20429;-80
2021/11/23 05:30:32;;;;;;;0.40;0.30;;;;;;;4.42;100.00;101936.97;5077430;28;20441;-80
2021/11/23 05:32:58;;;;;;;0.40;0.30;;;;;;;4.49;100.00;101937.72;5076172;28;20453;-80
2021/11/23 05:35:25;;;;;;;0.40;0.30;;;;;;;4.54;100.00;101935.97;5075750;28;20457;-82
2021/11/23 05:37:52;;;;;;;0.40;0.30;;;;;;;4.60;100.00;101933.41;5076489;28;20446;-82
2021/11/23 05:40:19;;;;;;;0.40;0.20;;;;;;;4.66;100.00;101944.06;5075412;28;20491;-82
2021/11/23 05:42:46;;;;;;;0.40;0.20;;;;;;;4.73;100.00;101942.09;5075372;28;20502;-82
2021/11/23 05:45:13;;;;;;;0.40;0.30;;;;;;;4.76;100.00;101938.97;5075328;28;20476;-83
2021/11/23 05:47:42;;;;;;;0.40;0.30;;;;;;;4.80;100.00;101929.41;5075817;28;20491;-83
2021/11/23 05:50:10;;;;;;;0.40;0.30;;;;;;;4.86;100.00;101935.72;5076049;28;20934;-81
2021/11/23 05:52:37;;;;;;;0.40;0.30;;;;;;;4.92;100.00;101942.88;5075574;28;20467;-81
2021/11/23 05:55:05;;;;;;;0.40;0.30;;;;;;;4.98;100.00;101930.41;5075317;28;20457;-81
2021/11/23 05:57:32;;;;;;;0.40;0.20;;;;;;;5.00;100.00;101933.66;5075248;28;20476;-82
2021/11/23 05:59:59;;;;;;;0.40;0.30;;;;;;;5.01;100.00;101935.31;5075561;28;21009;-79
2021/11/23 06:02:26;;;;;;;0.40;0.20;;;;;;;5.05;100.00;101940.00;5076254;28;20867;-79
2021/11/23 06:04:54;;;;;;;0.40;0.30;;;;;;;5.05;100.00;101942.69;5074105;28;20461;-79
2021/11/23 06:07:20;;;;;;;2.73;1.70;;;;;;;5.04;100.00;101941.00;5078254;28;20449;-80
2021/11/23 06:09:47;;;;;;;0.40;0.20;;;;;;;5.07;100.00;101939.75;5078844;28;20888;-80
2021/11/23 06:12:14;;;;;;;0.40;0.30;;;;;;;5.10;100.00;101944.66;5076408;28;20946;-80
2021/11/23 06:14:41;;;;;;;0.40;0.30;;;;;;;5.16;100.00;101946.41;5077139;28;20446;-79
2021/11/23 06:17:10;;;;;;;0.40;0.30;;;;;;;5.10;100.00;101944.66;5076461;28;20841;-80
2021/11/23 06:19:38;;;;;;;0.40;0.30;;;;;;;5.18;100.00;101952.41;5076508;28;20950;-79
2021/11/23 06:22:07;;;;;;;0.40;0.30;;;;;;;5.19;100.00;101947.84;5076919;28;20445;-80
2021/11/23 06:24:34;;;;;;;0.40;0.20;;;;;;;5.21;100.00;101951.09;5079036;28;20468;-80
2021/11/23 06:27:01;;;;;;;0.40;0.30;;;;;;;5.27;100.00;101950.19;5077968;28;20469;-80
2021/11/23 06:29:28;;;;;;;0.40;0.20;;;;;;;5.26;100.00;101954.72;5080959;28;20449;-79
2021/11/23 06:31:54;;;;;;;0.40;0.30;;;;;;;5.29;100.00;101959.63;5082247;28;20476;-79
2021/11/23 06:34:21;;;;;;;0.40;0.30;;;;;;;5.35;100.00;101971.31;5080949;28;20450;-79
2021/11/23 06:36:48;;;;;;;0.40;0.20;;;;;;;5.39;100.00;101974.38;5081545;28;20472;-80
2021/11/23 06:39:16;;;;;;;0.50;0.40;;;;;;;5.42;100.00;101987.34;5081965;28;20445;-79
2021/11/23 06:41:43;;;;;;;0.40;0.30;;;;;;;5.42;100.00;101985.47;5082111;28;20880;-79
2021/11/23 06:44:10;;;;;;;0.40;0.30;;;;;;;5.47;100.00;101992.84;5081432;28;20445;-82
2021/11/23 06:46:37;;;;;;;0.40;0.20;;;;;;;5.49;100.00;101990.72;5078990;28;21082;-82
2021/11/23 06:49:04;;;;;;;0.40;0.20;;;;;;;5.49;100.00;101993.41;5078973;28;20426;-82
2021/11/23 06:51:31;;;;;;;0.40;0.30;;;;;;;5.54;100.00;101988.19;5078862;28;20477;-82
2021/11/23 06:53:58;;;;;;;0.40;0.30;;;;;;;5.57;100.00;101993.06;5084012;28;20417;-80
2021/11/23 06:56:26;;;;;;;0.40;0.20;;;;;;;5.55;100.00;102003.25;5080337;28;20876;-80
2021/11/23 06:58:55;;;;;;;0.40;0.30;;;;;;;5.61;100.00;102014.94;5079486;28;20498;-81
2021/11/23 07:01:22;;;;;;;0.40;0.30;;;;;;;5.59;100.00;102011.69;5078661;28;20576;-80
2021/11/23 07:03:49;;;;;;;0.40;0.30;;;;;;;5.62;100.00;102017.38;5078411;28;20949;-80
2021/11/23 07:06:16;;;;;;;0.40;0.30;;;;;;;5.61;100.00;102012.25;5079159;28;20461;-79
2021/11/23 07:08:43;;;;;;;7.23;1.80;;;;;;;5.60;100.00;102008.75;5079781;28;20938;-79
2021/11/23 07:11:11;;;;;;;0.40;0.30;;;;;;;5.66;100.00;102012.38;5079110;28;20449;-80
2021/11/23 07:13:39;;;;;;;0.40;0.30;;;;;;;5.66;100.00;102015.88;5081096;28;20449;-78
2021/11/23 07:16:07;;;;;;;0.40;0.30;;;;;;;5.68;100.00;102026.41;5080126;28;20511;-78
2021/11/23 07:18:34;;;;;;;0.40;0.30;;;;;;;5.65;100.00;102029.53;5080318;28;20498;-77
2021/11/23 07:21:01;;;;;;;0.40;0.30;;;;;;;5.69;100.00;102034.22;5080709;28;20493;-78
2021/11/23 07:23:28;;;;;;;0.40;0.20;;;;;;;5.70;100.00;102045.78;5079243;28;20959;-78
2021/11/23 07:25:55;;;;;;;0.53;0.50;;;;;;;5.71;100.00;102048.28;5078693;28;20553;-78
2021/11/23 07:28:21;;;;;;;0.40;0.30;;;;;;;5.72;100.00;102049.09;5077992;28;20445;-79
2021/11/23 07:30:54;;;;;;;0.40;0.30;;;;;;;5.72;100.00;102051.78;5076806;28;20479;-78
2021/11/23 07:33:21;;;;;;;0.40;0.20;;;;;;;5.73;100.00;102056.09;5076884;28;20434;-78
2021/11/23 07:35:47;;;;;;;0.40;0.30;;;;;;;5.74;100.00;102047.78;5076913;28;20522;-78
2021/11/23 07:38:14;;;;;;;0.40;0.30;;;;;;;5.74;100.00;102050.47;5077095;28;20449;-79
2021/11/23 07:40:42;;;;;;;6.23;3.93;;;;;;;5.79;100.00;102045.22;5076293;28;20485;-78
2021/11/23 07:43:09;;;;;;;0.40;0.30;;;;;;;5.79;100.00;102034.47;5076777;28;20468;-78
2021/11/23 07:45:35;;;;;;;0.40;0.30;;;;;;;5.81;100.00;102036.94;5076678;28;20458;-78
2021/11/23 07:48:04;;;;;;;0.40;0.30;;;;;;;5.84;100.00;102041.81;5076543;28;20437;-78
2021/11/23 07:50:31;;;;;;;2.47;1.43;;;;;;;5.91;100.00;102047.09;5077340;28;20453;-79
2021/11/23 07:52:58;;;;;;;0.40;0.30;;;;;;;5.93;100.00;102050.41;5076390;28;20464;-78
2021/11/23 07:55:25;;;;;;;0.40;0.30;;;;;;;5.88;100.00;102055.63;5076245;28;20473;-78
2021/11/23 07:57:51;;;;;;;0.40;0.30;;;;;;;5.93;100.00;102045.00;5076885;28;20446;-78
2021/11/23 08:00:22;;;;;;;0.40;0.27;;;;;;;5.93;100.00;102045.00;5076363;28;20441;-78
2021/11/23 08:02:49;;;;;;;0.40;0.30;;;;;;;5.96;100.00;102042.69;5075956;28;20925;-78
2021/11/23 08:05:17;;;;;;;0.40;0.30;;;;;;;5.93;100.00;102043.19;5076558;28;20469;-78
2021/11/23 08:07:47;;;;;;;0.40;0.30;;;;;;;5.92;100.00;102048.75;5076694;28;20518;-78
2021/11/23 08:10:14;;;;;;;0.40;0.30;;;;;;;5.86;100.00;102049.69;5075958;28;21025;-78
2021/11/23 08:12:41;;;;;;;0.40;0.27;;;;;;;5.92;100.00;102059.53;5075641;28;20930;-78
2021/11/23 08:15:09;;;;;;;0.40;0.30;;;;;;;5.90;100.00;102056.22;5075708;28;20461;-78
2021/11/23 08:17:36;;;;;;;0.40;0.20;;;;;;;5.91;100.00;102057.84;5075758;28;20950;-78
2021/11/23 08:20:05;;;;;;;0.40;0.30;;;;;;;5.93;100.00;102058.47;5075861;28;20441;-78
2021/11/23 08:22:34;;;;;;;0.40;0.30;;;;;;;5.92;100.00;102054.16;5075761;28;20444;-78
2021/11/23 08:25:01;;;;;;;0.40;0.30;;;;;;;5.88;100.00;102053.75;5076847;28;20894;-78
2021/11/23 08:27:28;;;;;;;0.40;0.30;;;;;;;5.90;100.00;102062.41;5077530;28;20870;-78
2021/11/23 08:29:55;;;;;;;0.40;0.30;;;;;;;5.94;100.00;102055.56;5076287;28;20491;-79
2021/11/23 08:32:22;;;;;;;0.40;0.20;;;;;;;5.91;100.00;102053.28;5075996;28;20451;-79
2021/11/23 08:34:49;;;;;;;0.67;0.67;;;;;;;5.99;100.00;102054.84;5076037;28;20445;-79
2021/11/23 08:37:16;;;;;;;0.40;0.30;;;;;;;6.02;100.00;102062.44;5076371;28;20473;-78
2021/11/23 08:39:44;;;;;;;0.40;0.30;;;;;;;6.05;100.00;102070.03;5076400;28;20579;-78
2021/11/23 08:42:12;;;;;;;0.40;0.30;;;;;;;6.10;100.00;102062.09;5076454;28;20493;-78
2021/11/23 08:44:39;;;;;;;0.40;0.20;;;;;;;6.17;100.00;102062.81;5075496;28;20449;-78
2021/11/23 08:47:07;;;;;;;0.40;0.30;;;;;;;6.13;100.00;102067.00;5071768;28;20451;-79
2021/11/23 08:49:34;;;;;;;0.40;0.40;;;;;;;6.23;100.00;102067.22;5068341;28;21038;-78
2021/11/23 08:52:01;;;;;;;0.40;0.30;;;;;;;6.25;100.00;102065.13;5075858;28;20475;-78
2021/11/23 08:54:30;;;;;;;0.40;0.30;;;;;;;6.30;100.00;102067.13;5075295;28;20445;-79
2021/11/23 08:57:01;;;;;;;0.40;0.30;;;;;;;6.28;100.00;102072.72;5075142;28;20458;-80
2021/11/23 08:59:28;;;;;;;0.40;0.20;;;;;;;6.30;100.00;102067.13;5076195;28;20437;-79
2021/11/23 09:01:55;;;;;;;3.90;1.70;;;;;;;6.29;100.00;102071.69;5075533;28;20528;-78
2021/11/23 09:04:22;;;;;;;0.40;0.30;;;;;;;6.37;100.00;102069.66;5075357;28;20434;-77
2021/11/23 09:06:49;;;;;;;0.40;0.30;;;;;;;6.37;100.00;102050.84;5076819;28;20514;-79
2021/11/23 09:09:15;;;;;;;0.40;0.30;;;;;;;6.36;100.00;102081.50;5076175;28;20777;-79
2021/11/23 09:11:43;;;;;;;0.40;0.30;;;;;;;6.37;100.00;102086.63;5076920;28;20472;-79
2021/11/23 09:14:11;;;;;;;0.40;0.30;;;;;;;6.44;100.00;102089.22;5076463;28;20445;-80
2021/11/23 09:16:38;;;;;;;0.50;0.40;;;;;;;6.49;100.00;102100.91;5075816;28;20481;-79
2021/11/23 09:19:06;;;;;;;0.40;0.30;;;;;;;6.57;100.00;102089.78;5076019;28;20857;-80
2021/11/23 09:21:33;;;;;;;0.40;0.40;;;;;;;6.55;100.00;102091.91;5075944;28;20920;-80
2021/11/23 09:24:00;;;;;;;0.40;0.30;;;;;;;6.47;100.00;102088.75;5076880;28;20438;-80
2021/11/23 09:26:27;;;;;;;3.43;2.43;;;;;;;6.66;100.00;102102.88;5076537;28;20469;-78
2021/11/23 09:28:54;;;;;;;0.40;0.30;;;;;;;6.68;100.00;102100.75;5075609;28;20449;-78
2021/11/23 09:31:23;;;;;;;0.40;0.30;;;;;;;6.74;100.00;102102.50;5074332;28;20446;-80
2021/11/23 09:33:51;;;;;;;0.40;0.27;;;;;;;6.82;100.00;102107.53;5074114;28;20969;-79
2021/11/23 09:36:18;;;;;;;0.40;0.27;;;;;;;6.89;100.00;102105.50;5075925;28;20461;-78
2021/11/23 09:38:45;;;;;;;0.40;0.30;;;;;;;6.93;100.00;102103.16;5075728;28;20507;-78
2021/11/23 09:41:12;;;;;;;0.40;0.30;;;;;;;6.96;100.00;102103.50;5074562;28;20496;-79
2021/11/23 09:43:40;;;;;;;0.40;0.30;;;;;;;6.98;100.00;102097.88;5075108;28;20437;-79
2021/11/23 09:46:08;;;;;;;0.43;0.27;;;;;;;7.06;100.00;102097.50;5075612;28;20465;-79
2021/11/23 09:48:39;;;;;;;0.87;0.77;;;;;;;7.11;100.00;102107.56;5075343;28;20441;-79
2021/11/23 09:51:07;;;;;;;0.40;0.30;;;;;;;7.13;100.00;102110.81;5075430;28;20422;-79
2021/11/23 09:53:34;;;;;;;0.40;0.30;;;;;;;7.23;100.00;102102.94;5075709;28;20523;-79
2021/11/23 09:56:01;;;;;;;0.40;0.30;;;;;;;7.31;100.00;102106.06;5074387;28;20453;-79
2021/11/23 09:58:29;;;;;;;0.40;0.30;;;;;;;7.33;100.00;102103.94;5074685;28;20499;-78
2021/11/23 10:01:04;;;;;;;0.50;0.47;;;;;;;7.30;100.00;102108.97;5074565;28;20449;-79
2021/11/23 10:03:32;;;;;;;0.40;0.30;;;;;;;7.26;100.00;102111.38;5074349;28;20463;-78
2021/11/23 10:06:15;;;;;;;0.50;0.30;;;;;;;7.25;100.00;102112.41;5073947;28;20466;-79
2021/11/23 10:08:43;;;;;;;0.40;0.30;;;;;;;7.28;100.00;102116.50;5073752;28;20449;-79
2021/11/23 10:11:10;;;;;;;0.40;0.30;;;;;;;7.32;100.00;102117.66;5073261;28;20449;-79
2021/11/23 10:13:43;;;;;;;0.70;0.70;;;;;;;7.36;100.00;102118.00;5074829;28;20446;-79
2021/11/23 10:16:10;;;;;;;0.40;0.30;;;;;;;7.36;100.00;102126.09;5075066;28;20469;-79
2021/11/23 10:18:37;;;;;;;1.37;1.27;;;;;;;7.37;100.00;102120.44;5078096;28;20446;-79
2021/11/23 10:21:06;;;;;;;0.40;0.30;;;;;;;7.41;100.00;102120.78;5078552;28;20484;-79
2021/11/23 10:23:36;;;;;;;1.73;1.63;;;;;;;7.41;100.00;102110.81;5078382;28;20437;-79
2021/11/23 10:26:12;;;;;;;0.40;0.20;;;;;;;7.44;100.00;102113.03;5075631;28;20465;-78
2021/11/23 10:28:39;;;;;;;0.50;0.40;;;;;;;7.44;100.00;102110.34;5074352;28;20484;-79
2021/11/23 10:31:07;;;;;;;0.40;0.30;;;;;;;7.47;100.00;102095.53;5074075;28;20445;-78
2021/11/23 10:33:37;;;;;;;0.40;0.30;;;;;;;7.50;100.00;102098.59;5072662;28;20935;-79
2021/11/23 10:36:05;;;;;;;0.40;0.30;;;;;;;7.55;100.00;102095.16;5073932;28;20472;-79
2021/11/23 10:38:34;;;;;;;0.40;0.30;;;;;;;7.58;100.00;102094.69;5073726;28;20434;-79
2021/11/23 10:41:07;;;;;;;1.70;1.60;;;;;;;7.66;100.00;102096.13;5073595;28;20864;-78
2021/11/23 10:43:35;;;;;;;0.40;0.20;;;;;;;7.68;100.00;102094.03;5073374;28;20445;-79
2021/11/23 10:46:02;;;;;;;0.40;0.30;;;;;;;7.66;100.00;102098.84;5073199;28;20464;-78
2021/11/23 10:48:29;;;;;;;0.40;0.30;;;;;;;7.66;100.00;102093.44;5073081;28;20457;-78
2021/11/23 10:51:06;;;;;;;0.40;0.30;;;;;;;7.63;100.00;102096.66;5073565;28;20449;-79
2021/11/23 10:53:35;;;;;;;0.40;0.40;;;;;;;7.68;100.00;102088.63;5073121;28;20453;-77
2021/11/23 10:56:11;;;;;;;0.40;0.30;;;;;;;7.78;100.00;102084.22;5073194;28;20465;-80
2021/11/23 10:58:39;;;;;;;0.40;0.30;;;;;;;7.89;100.00;102089.78;5074132;28;20476;-78
2021/11/23 11:01:09;;;;;;;0.40;0.30;;;;;;;7.87;100.00;102091.91;5073158;28;20499;-78
2021/11/23 11:03:37;;;;;;;0.40;0.30;;;;;;;7.84;100.00;102079.75;5074027;28;20433;-82
2021/11/23 11:06:06;;;;;;;0.40;0.30;;;;;;;7.86;100.00;102079.47;5073115;28;20825;-79
2021/11/23 11:08:37;;;;;;;0.40;0.30;;;;;;;7.85;100.00;102067.88;5073665;28;20993;-79
2021/11/23 11:11:05;;;;;;;0.40;0.30;;;;;;;7.86;100.00;102066.81;5073927;28;20833;-80
2021/11/23 11:13:33;;;;;;;0.40;0.30;;;;;;;7.92;100.00;102065.00;5075782;28;20839;-78
2021/11/23 11:16:00;;;;;;;0.40;0.30;;;;;;;8.04;100.00;102058.44;5074800;28;20480;-81
2021/11/23 11:18:27;;;;;;;0.40;0.30;;;;;;;8.10;100.00;102045.84;5077576;28;20445;-80
2021/11/23 11:20:59;;;;;;;0.40;0.30;;;;;;;8.17;100.00;102051.88;5077175;28;20429;-80
2021/11/23 11:23:28;;;;;;;0.40;0.30;;;;;;;8.15;100.00;102051.34;5076878;28;20476;-78
2021/11/23 11:28:50;;;;;;;0.40;0.27;;;;;;;8.11;100.00;102068.28;5075816;28;20479;-81
2021/11/23 11:31:39;;;;;;;0.40;0.30;;;;;;;8.18;100.00;102075.09;5076510;28;20436;-82